Time,TemperatureF,DewpointF,PressureIn,WindDirection,WindDirectionDegrees,WindSpeedMPH,WindSpeedGustMPH,Humidity,HourlyPrecipIn,Conditions,Clouds,dailyrainin,SoftwareType,DateUTC
2013-03-06 00:01:00,41.0,37.0,29.87,NE,36,0.0,0.0,85,-99.99,,,0.00,,2013-03-06 08:01:00,
2013-03-06 00:11:00,41.0,37.0,29.87,NNW,334,0.0,3.0,85,-99.99,,,0.00,,2013-03-06 08:11:00,
2013-03-06 00:21:00,41.0,38.0,29.88,NW,316,0.0,3.0,86,-99.99,,,0.00,,2013-03-06 08:21:00,
2013-03-06 00:31:00,46.0,34.0,29.87,WSW,247,1.0,7.0,64,-99.99,,,-99.99,,2013-03-06 08:31:00,
2013-03-06 00:41:00,47.0,32.0,29.91,WSW,255,3.0,11.0,57,-99.99,,,0.00,,2013-03-06 08:41:00,
2013-03-06 00:52:00,41.0,35.0,29.96,West,267,3.0,9.0,78,-99.99,,,0.00,,2013-03-06 08:52:00,
2013-03-06 01:01:00,41.0,35.0,29.96,West,267,3.0,9.0,78,-99.99,,,0.00,,2013-03-06 09:01:00,
2013-03-06 01:12:00,40.0,36.0,29.95,SW,217,1.0,5.0,87,-99.99,,,0.00,,2013-03-06 09:12:00,
2013-03-06 01:21:00,39.0,36.0,29.96,SSW,205,1.0,5.0,88,-99.99,,,0.00,,2013-03-06 09:21:00,
2013-03-06 01:31:00,39.0,36.0,29.97,WSW,237,0.0,3.0,91,-99.99,,,0.00,,2013-03-06 09:31:00,
2013-03-06 01:41:00,38.0,37.0,29.96,NW,325,0.0,2.0,94,-99.99,,,0.00,,2013-03-06 09:41:00,
2013-03-06 01:51:00,38.0,37.0,29.96,NW,325,0.0,3.0,94,-99.99,,,0.00,,2013-03-06 09:51:00,
2013-03-06 02:01:00,38.0,37.0,29.95,NNW,335,0.0,3.0,95,-99.99,,,0.00,,2013-03-06 10:01:00,
2013-03-06 02:11:00,38.0,37.0,29.94,NNE,13,0.0,2.0,95,-99.99,,,0.00,,2013-03-06 10:11:00,
2013-03-06 02:21:00,38.0,36.0,29.93,ENE,57,0.0,0.0,95,-99.99,,,0.00,,2013-03-06 10:21:00,
2013-03-06 02:31:00,38.0,37.0,29.95,NE,54,0.0,0.0,96,-99.99,,,0.00,,2013-03-06 10:31:00,
2013-03-06 02:41:00,38.0,37.0,29.95,SW,214,1.0,5.0,96,-99.99,,,0.00,,2013-03-06 10:41:00,
2013-03-06 02:51:00,38.0,36.0,29.95,SSW,192,1.0,6.0,95,-99.99,,,-99.99,,2013-03-06 10:51:00,
2013-03-06 03:01:00,38.0,36.0,29.95,SSW,192,1.0,6.0,95,-99.99,,,-99.99,,2013-03-06 11:01:00,
2013-03-06 03:11:00,37.0,36.0,29.95,ESE,111,0.0,2.0,96,-99.99,,,0.00,,2013-03-06 11:11:00,
2013-03-06 03:22:00,37.0,36.0,29.95,South,183,1.0,5.0,96,-99.99,,,0.00,,2013-03-06 11:22:00,
2013-03-06 03:31:00,37.0,35.0,29.95,SSW,203,1.0,4.0,95,-99.99,,,0.00,,2013-03-06 11:31:00,
2013-03-06 03:42:00,36.0,35.0,29.94,SW,221,1.0,4.0,95,-99.99,,,0.00,,2013-03-06 11:42:00,
2013-03-06 03:52:00,36.0,35.0,29.94,SE,144,0.0,0.0,95,-99.99,,,0.01,,2013-03-06 11:52:00,
2013-03-06 04:01:00,36.0,35.0,29.94,NE,38,0.0,0.0,96,-99.99,,,0.01,,2013-03-06 12:01:00,
2013-03-06 04:11:00,36.0,36.0,29.94,ENE,68,0.0,0.0,97,-99.99,,,0.01,,2013-03-06 12:11:00,
2013-03-06 04:21:00,36.0,35.0,29.94,East,96,0.0,0.0,97,-99.99,,,0.01,,2013-03-06 12:21:00,
2013-03-06 04:32:00,36.0,35.0,29.95,South,185,0.0,0.0,97,-99.99,,,0.01,,2013-03-06 12:32:00,
2013-03-06 04:42:00,36.0,35.0,29.95,South,190,0.0,0.0,97,-99.99,,,0.01,,2013-03-06 12:42:00,
2013-03-06 04:52:00,36.0,35.0,29.95,South,190,0.0,0.0,97,-99.99,,,0.01,,2013-03-06 12:52:00,
2013-03-06 05:01:00,36.0,35.0,29.94,South,173,0.0,0.0,97,-99.99,,,0.01,,2013-03-06 13:01:00,
2013-03-06 05:11:00,36.0,35.0,29.95,SSW,193,0.0,0.0,97,-99.99,,,0.01,,2013-03-06 13:11:00,
2013-03-06 05:21:00,36.0,35.0,29.95,SSW,204,0.0,0.0,97,-99.99,,,0.01,,2013-03-06 13:21:00,
2013-03-06 05:31:00,35.0,35.0,29.96,SW,224,0.0,0.0,97,-99.99,,,0.01,,2013-03-06 13:31:00,
2013-03-06 05:41:00,35.0,35.0,29.96,SW,214,0.0,0.0,97,-99.99,,,0.01,,2013-03-06 13:41:00,
2013-03-06 05:51:00,35.0,34.0,29.96,South,177,0.0,0.0,97,-99.99,,,-99.99,,2013-03-06 13:51:00,
2013-03-06 06:01:00,35.0,34.0,29.95,ENE,58,0.0,3.0,97,-99.99,,,0.01,,2013-03-06 14:01:00,
2013-03-06 06:11:00,35.0,35.0,29.95,SE,133,0.0,0.0,98,-99.99,,,0.01,,2013-03-06 14:11:00,
2013-03-06 06:21:00,35.0,35.0,29.95,South,190,0.0,0.0,98,-99.99,,,0.01,,2013-03-06 14:21:00,
2013-03-06 06:32:00,35.0,35.0,29.95,East,90,0.0,3.0,98,-99.99,,,0.01,,2013-03-06 14:32:00,
2013-03-06 06:41:00,35.0,35.0,29.94,SE,139,0.0,2.0,98,-99.99,,,0.01,,2013-03-06 14:41:00,
2013-03-06 06:52:00,35.0,35.0,29.94,ENE,68,0.0,2.0,98,-99.99,,,0.01,,2013-03-06 14:52:00,
2013-03-06 07:01:00,35.0,35.0,29.94,East,81,0.0,0.0,98,-99.99,,,0.01,,2013-03-06 15:01:00,
2013-03-06 07:11:00,35.0,35.0,29.94,SSE,168,0.0,2.0,98,-99.99,,,0.01,,2013-03-06 15:11:00,
2013-03-06 07:21:00,36.0,35.0,29.94,SSW,208,0.0,3.0,98,-99.99,,,0.01,,2013-03-06 15:21:00,
2013-03-06 07:32:00,36.0,35.0,29.95,NE,39,0.0,3.0,98,-99.99,,,0.01,,2013-03-06 15:32:00,
2013-03-06 07:41:00,36.0,35.0,29.95,West,275,1.0,4.0,98,-99.99,,,0.01,,2013-03-06 15:41:00,
2013-03-06 07:51:00,36.0,35.0,29.95,West,275,1.0,4.0,98,-99.99,,,0.01,,2013-03-06 15:51:00,
2013-03-06 08:01:00,36.0,35.0,29.94,North,8,0.0,0.0,98,-99.99,,,0.01,,2013-03-06 16:01:00,
2013-03-06 08:11:00,36.0,35.0,29.96,NW,323,0.0,0.0,98,-99.99,,,0.01,,2013-03-06 16:11:00,
2013-03-06 08:21:00,36.0,35.0,29.96,SSE,162,0.0,2.0,98,-99.99,,,0.01,,2013-03-06 16:21:00,
2013-03-06 08:32:00,36.0,35.0,29.96,SSE,162,0.0,2.0,98,-99.99,,,0.01,,2013-03-06 16:32:00,
2013-03-06 08:41:00,36.0,36.0,29.96,NNE,18,0.0,2.0,98,-99.99,,,0.01,,2013-03-06 16:41:00,
2013-03-06 08:51:00,37.0,36.0,29.96,NNE,31,0.0,0.0,98,-99.99,,,0.01,,2013-03-06 16:51:00,
2013-03-06 09:01:00,37.0,36.0,29.97,SE,126,0.0,3.0,98,-99.99,,,0.01,,2013-03-06 17:01:00,
2013-03-06 09:11:00,37.0,37.0,29.98,SW,230,0.0,3.0,97,-99.99,,,0.01,,2013-03-06 17:11:00,
2013-03-06 09:21:00,37.0,36.0,29.98,South,179,1.0,4.0,95,-99.99,,,0.01,,2013-03-06 17:21:00,
2013-03-06 09:31:00,37.0,36.0,29.98,West,273,0.0,2.0,96,-99.99,,,0.01,,2013-03-06 17:31:00,
2013-03-06 09:41:00,37.0,36.0,29.98,SW,218,0.0,0.0,96,-99.99,,,0.01,,2013-03-06 17:41:00,
2013-03-06 09:52:00,37.0,36.0,29.98,NW,311,0.0,3.0,96,-99.99,,,0.01,,2013-03-06 17:52:00,
2013-03-06 10:01:00,37.0,36.0,29.98,ENE,64,0.0,0.0,96,-99.99,,,0.01,,2013-03-06 18:01:00,
2013-03-06 10:28:00,38.0,37.0,29.99,West,276,0.0,5.0,96,-99.99,,,0.01,,2013-03-06 18:28:00,
2013-03-06 10:41:00,38.0,36.0,29.99,WSW,249,0.0,3.0,94,-99.99,,,0.01,,2013-03-06 18:41:00,
2013-03-06 10:52:00,38.0,36.0,29.99,SSE,157,0.0,3.0,95,-99.99,,,0.01,,2013-03-06 18:52:00,
2013-03-06 11:01:00,38.0,36.0,29.99,WNW,282,0.0,3.0,95,-99.99,,,0.01,,2013-03-06 19:01:00,
2013-03-06 11:11:00,38.0,37.0,30.01,WNW,303,0.0,2.0,95,-99.99,,,0.01,,2013-03-06 19:11:00,
2013-03-06 11:21:00,38.0,36.0,30.01,SW,234,0.0,3.0,94,-99.99,,,0.01,,2013-03-06 19:21:00,
2013-03-06 11:31:00,38.0,37.0,30.01,SSE,155,0.0,3.0,95,-99.99,,,0.02,,2013-03-06 19:31:00,
2013-03-06 11:42:00,38.0,36.0,30.01,SE,144,0.0,3.0,93,-99.99,,,0.02,,2013-03-06 19:42:00,
2013-03-06 11:52:00,38.0,37.0,30.02,SSE,152,0.0,2.0,95,-99.99,,,0.02,,2013-03-06 19:52:00,
2013-03-06 12:01:00,38.0,37.0,30.02,SSE,152,0.0,2.0,95,-99.99,,,0.02,,2013-03-06 20:01:00,
2013-03-06 12:11:00,38.0,37.0,30.02,SSE,168,0.0,2.0,95,-99.99,,,0.02,,2013-03-06 20:11:00,
2013-03-06 12:21:00,38.0,36.0,30.02,SSE,147,0.0,3.0,94,-99.99,,,0.02,,2013-03-06 20:21:00,
2013-03-06 12:31:00,38.0,36.0,30.02,SSE,147,0.0,3.0,94,-99.99,,,0.02,,2013-03-06 20:31:00,
2013-03-06 12:42:00,38.0,36.0,30.02,SSE,147,0.0,3.0,94,-99.99,,,0.02,,2013-03-06 20:42:00,
2013-03-06 12:52:00,37.0,35.0,30.03,SW,235,0.0,4.0,94,-99.99,,,0.02,,2013-03-06 20:52:00,
2013-03-06 13:01:00,37.0,35.0,30.02,SE,131,0.0,2.0,95,-99.99,,,0.02,,2013-03-06 21:01:00,
2013-03-06 13:11:00,36.0,35.0,30.02,SE,139,0.0,2.0,95,-99.99,,,-99.99,,2013-03-06 21:11:00,
2013-03-06 13:21:00,37.0,36.0,30.03,South,190,0.0,3.0,96,-99.99,,,0.02,,2013-03-06 21:21:00,
2013-03-06 13:31:00,37.0,36.0,30.03,South,190,0.0,3.0,96,-99.99,,,0.02,,2013-03-06 21:31:00,
2013-03-06 13:41:00,37.0,36.0,30.02,NE,40,0.0,2.0,96,-99.99,,,0.02,,2013-03-06 21:41:00,
2013-03-06 13:51:00,37.0,36.0,30.01,SE,129,0.0,3.0,96,-99.99,,,0.02,,2013-03-06 21:51:00,
2013-03-06 14:01:00,37.0,36.0,30.02,NE,42,0.0,0.0,96,-99.99,,,0.02,,2013-03-06 22:01:00,
2013-03-06 14:11:00,37.0,36.0,30.01,SSE,147,0.0,3.0,96,-99.99,,,0.02,,2013-03-06 22:11:00,
2013-03-06 14:21:00,37.0,35.0,30.01,SW,216,0.0,0.0,95,-99.99,,,0.02,,2013-03-06 22:21:00,
2013-03-06 14:31:00,37.0,36.0,30.02,SSE,155,0.0,0.0,96,-99.99,,,0.02,,2013-03-06 22:31:00,
2013-03-06 14:41:00,37.0,36.0,30.02,ENE,73,0.0,2.0,95,-99.99,,,0.02,,2013-03-06 22:41:00,
2013-03-06 14:51:00,37.0,35.0,30.02,NE,44,0.0,0.0,94,-99.99,,,0.02,,2013-03-06 22:51:00,
2013-03-06 15:01:00,37.0,36.0,30.01,North,359,0.0,0.0,95,-99.99,,,0.02,,2013-03-06 23:01:00,
2013-03-06 15:11:00,37.0,36.0,30.01,North,359,0.0,2.0,94,-99.99,,,0.02,,2013-03-06 23:11:00,
2013-03-06 15:21:00,38.0,36.0,30.01,NE,48,0.0,0.0,94,-99.99,,,0.02,,2013-03-06 23:21:00,
2013-03-06 15:31:00,38.0,36.0,30.01,North,9,0.0,0.0,94,-99.99,,,0.02,,2013-03-06 23:31:00,
2013-03-06 15:41:00,38.0,36.0,30.01,NNE,15,0.0,0.0,95,-99.99,,,0.02,,2013-03-06 23:41:00,
2013-03-06 15:52:00,38.0,37.0,30.01,NNE,33,0.0,0.0,95,-99.99,,,0.02,,2013-03-06 23:52:00,
2013-03-06 16:01:00,38.0,37.0,30.00,NNE,27,0.0,0.0,95,-99.99,,,0.02,,2013-03-07 00:01:00,
2013-03-06 16:11:00,38.0,37.0,30.00,NNE,27,0.0,0.0,95,-99.99,,,0.02,,2013-03-07 00:11:00,
2013-03-06 16:21:00,38.0,37.0,30.00,SW,231,0.0,3.0,95,-99.99,,,0.02,,2013-03-07 00:21:00,
2013-03-06 16:31:00,38.0,37.0,30.00,NNE,22,0.0,0.0,95,-99.99,,,0.02,,2013-03-07 00:31:00,
2013-03-06 16:41:00,38.0,37.0,30.00,NNE,22,0.0,0.0,95,-99.99,,,0.02,,2013-03-07 00:41:00,
2013-03-06 16:51:00,38.0,37.0,30.00,East,87,0.0,0.0,96,-99.99,,,0.02,,2013-03-07 00:51:00,
2013-03-06 17:01:00,38.0,37.0,29.99,East,95,0.0,0.0,96,-99.99,,,0.02,,2013-03-07 01:01:00,
2013-03-06 17:11:00,38.0,37.0,29.99,East,94,0.0,0.0,96,-99.99,,,0.02,,2013-03-07 01:11:00,
2013-03-06 17:21:00,38.0,37.0,29.98,East,95,0.0,0.0,96,-99.99,,,0.02,,2013-03-07 01:21:00,
2013-03-06 17:31:00,38.0,37.0,29.99,East,95,0.0,0.0,96,-99.99,,,0.02,,2013-03-07 01:31:00,
2013-03-06 17:41:00,38.0,37.0,29.98,East,95,0.0,0.0,96,-99.99,,,0.02,,2013-03-07 01:41:00,
2013-03-06 17:51:00,38.0,37.0,29.98,East,93,0.0,0.0,96,-99.99,,,0.02,,2013-03-07 01:51:00,
2013-03-06 18:01:00,38.0,37.0,29.99,ENE,73,0.0,0.0,96,-99.99,,,0.02,,2013-03-07 02:01:00,
2013-03-06 18:11:00,38.0,37.0,29.99,East,94,0.0,0.0,96,-99.99,,,0.02,,2013-03-07 02:11:00,
2013-03-06 18:21:00,38.0,37.0,29.99,ESE,121,0.0,0.0,97,-99.99,,,0.02,,2013-03-07 02:21:00,
2013-03-06 18:31:00,38.0,37.0,29.99,ESE,121,0.0,0.0,97,-99.99,,,0.02,,2013-03-07 02:31:00,
2013-03-06 18:41:00,38.0,37.0,29.99,ESE,121,0.0,0.0,97,-99.99,,,0.02,,2013-03-07 02:41:00,
2013-03-06 18:51:00,38.0,37.0,29.99,ESE,121,0.0,0.0,97,-99.99,,,0.02,,2013-03-07 02:51:00,
2013-03-06 19:01:00,38.0,37.0,29.99,SE,145,0.0,0.0,97,-99.99,,,0.02,,2013-03-07 03:01:00,
2013-03-06 19:11:00,37.0,37.0,29.99,SE,145,0.0,0.0,97,-99.99,,,0.02,,2013-03-07 03:11:00,
2013-03-06 19:21:00,37.0,37.0,29.99,SE,145,0.0,0.0,97,-99.99,,,0.02,,2013-03-07 03:21:00,
2013-03-06 19:31:00,37.0,37.0,29.99,SSW,210,0.0,2.0,97,-99.99,,,0.03,,2013-03-07 03:31:00,
2013-03-06 19:41:00,37.0,36.0,29.99,SSW,201,0.0,0.0,97,-99.99,,,0.03,,2013-03-07 03:41:00,
2013-03-06 19:51:00,36.0,36.0,29.99,South,183,0.0,0.0,97,-99.99,,,0.03,,2013-03-07 03:51:00,
2013-03-06 20:01:00,36.0,35.0,29.99,South,189,0.0,0.0,97,-99.99,,,0.03,,2013-03-07 04:01:00,
2013-03-06 20:11:00,36.0,35.0,29.99,South,182,0.0,0.0,97,-99.99,,,0.03,,2013-03-07 04:11:00,
2013-03-06 20:21:00,36.0,35.0,29.99,South,174,0.0,0.0,97,-99.99,,,0.03,,2013-03-07 04:21:00,
2013-03-06 20:31:00,36.0,35.0,29.99,South,174,0.0,0.0,97,-99.99,,,0.03,,2013-03-07 04:31:00,
2013-03-06 20:41:00,36.0,35.0,29.98,South,174,0.0,0.0,97,-99.99,,,0.03,,2013-03-07 04:41:00,
2013-03-06 20:51:00,36.0,35.0,29.98,South,183,0.0,0.0,98,-99.99,,,0.03,,2013-03-07 04:51:00,
2013-03-06 21:01:00,36.0,35.0,29.98,South,183,0.0,0.0,98,-99.99,,,0.03,,2013-03-07 05:01:00,
2013-03-06 21:12:00,36.0,35.0,29.98,SW,214,0.0,0.0,98,-99.99,,,0.03,,2013-03-07 05:12:00,
2013-03-06 21:22:00,35.0,35.0,29.98,SW,219,0.0,2.0,98,-99.99,,,0.03,,2013-03-07 05:22:00,
2013-03-06 21:31:00,35.0,35.0,29.98,WSW,253,0.0,0.0,98,-99.99,,,0.03,,2013-03-07 05:31:00,
2013-03-06 21:41:00,35.0,35.0,29.98,WSW,253,0.0,0.0,98,-99.99,,,0.03,,2013-03-07 05:41:00,
2013-03-06 21:52:00,35.0,35.0,29.98,SSW,210,0.0,0.0,98,-99.99,,,0.03,,2013-03-07 05:52:00,
2013-03-06 22:01:00,35.0,35.0,29.98,NNW,334,0.0,2.0,98,-99.99,,,-99.99,,2013-03-07 06:01:00,
2013-03-06 22:11:00,35.0,34.0,29.97,East,88,0.0,0.0,98,-99.99,,,0.03,,2013-03-07 06:11:00,
2013-03-06 22:21:00,35.0,34.0,29.97,ESE,112,0.0,0.0,98,-99.99,,,0.03,,2013-03-07 06:21:00,
2013-03-06 22:31:00,35.0,34.0,29.96,ENE,63,0.0,0.0,98,-99.99,,,0.03,,2013-03-07 06:31:00,
2013-03-06 22:41:00,34.0,34.0,29.96,South,170,0.0,0.0,98,-99.99,,,0.03,,2013-03-07 06:41:00,
2013-03-06 22:51:00,34.0,34.0,29.95,SSW,196,0.0,0.0,98,-99.99,,,0.03,,2013-03-07 06:51:00,
2013-03-06 23:01:00,34.0,34.0,29.95,SSW,196,0.0,0.0,98,-99.99,,,0.03,,2013-03-07 07:01:00,
2013-03-06 23:11:00,34.0,34.0,29.95,WSW,250,0.0,2.0,99,-99.99,,,0.03,,2013-03-07 07:11:00,
2013-03-06 23:21:00,34.0,34.0,29.94,North,358,0.0,0.0,99,-99.99,,,0.03,,2013-03-07 07:21:00,
2013-03-06 23:31:00,34.0,34.0,29.94,East,90,0.0,0.0,99,-99.99,,,0.03,,2013-03-07 07:31:00,
2013-03-06 23:41:00,34.0,34.0,29.94,SW,222,0.0,2.0,99,-99.99,,,0.03,,2013-03-07 07:41:00,
2013-03-06 23:51:00,34.0,34.0,29.94,SW,223,0.0,0.0,99,-99.99,,,-99.99,,2013-03-07 07:51:00,